Time;durP1;ratioP1;P1;durP2;ratioP2;P2;SDS_P1;SDS_P2;PMS_P1;PMS_P2;Temp;Humidity;BMP_temperature;BMP_pressure;BME280_temperature;BME280_humidity;BME280_pressure;Samples;Min_cycle;Max_cycle;Signal;HPM_P1;HPM_P2
2022/09/04 00:00:17;;;;;;;;;8.33;5.33;;;;;19.82;71.82;100062.56;5026811;28;46544;-73
2022/09/04 00:03:12;;;;;;;;;5.67;5.67;;;;;19.81;71.99;100060.78;5029043;28;45804;-73
2022/09/04 00:06:01;;;;;;;;;6.33;6.33;;;;;19.76;71.45;100060.88;5025904;28;45401;-73
2022/09/04 00:08:55;;;;;;;;;5.67;4.67;;;;;19.83;71.07;100066.94;5029520;28;45623;-73
2022/09/04 00:11:43;;;;;;;;;5.67;5.00;;;;;19.86;71.22;100074.84;5022825;28;45897;-73
2022/09/04 00:14:19;;;;;;;;;4.67;4.67;;;;;19.72;71.20;100056.53;5029318;28;45524;-73
2022/09/04 00:17:00;;;;;;;;;6.00;4.33;;;;;19.77;71.16;100062.59;5030419;28;45442;-73
2022/09/04 00:19:34;;;;;;;;;7.00;6.00;;;;;19.75;71.26;100067.06;5046851;28;45574;-73
2022/09/04 00:22:09;;;;;;;;;5.00;5.00;;;;;19.66;71.16;100053.94;5035742;28;45618;-73
2022/09/04 00:24:43;;;;;;;;;7.00;6.00;;;;;19.68;71.26;100050.34;5028851;28;45429;-73
2022/09/04 00:27:30;;;;;;;;;5.67;5.67;;;;;19.75;71.29;100056.44;5030704;28;45462;-73
2022/09/04 00:30:05;;;;;;;;;6.00;6.00;;;;;19.76;71.32;100058.22;5029634;28;45841;-73
2022/09/04 00:32:45;;;;;;;;;7.00;7.00;;;;;19.76;71.02;100062.66;5029035;28;46217;-73
2022/09/04 00:35:17;;;;;;;;;6.67;6.67;;;;;19.74;71.69;100053.84;5028148;28;45545;-74
2022/09/04 00:38:02;;;;;;;;;6.00;6.00;;;;;19.72;71.55;100045.06;5028433;28;45470;-73
2022/09/04 00:40:37;;;;;;;;;6.33;5.33;;;;;19.63;71.84;100046.88;5033163;28;45351;-73
2022/09/04 00:43:12;;;;;;;;;5.33;5.33;;;;;19.62;72.46;100053.09;5027142;28;45803;-73
2022/09/04 00:45:53;;;;;;;;;8.00;6.00;;;;;19.63;72.43;100053.97;5031468;28;45753;-74
2022/09/04 00:48:52;;;;;;;;;7.00;6.00;;;;;19.63;71.89;100054.84;5030496;28;45851;-72
2022/09/04 00:51:49;;;;;;;;;5.00;5.00;;;;;19.62;72.43;100049.56;5032267;28;45494;-72
2022/09/04 00:54:20;;;;;;;;;7.33;7.00;;;;;19.59;72.47;100049.63;5016204;28;46283;-73
2022/09/04 00:57:02;;;;;;;;;8.33;7.33;;;;;19.50;73.03;100045.34;5014482;28;45509;-73
2022/09/04 00:59:44;;;;;;;;;7.33;6.33;;;;;19.47;72.97;100038.28;5015500;28;45489;-73
2022/09/04 01:02:30;;;;;;;;;6.67;6.67;;;;;19.54;72.83;100043.53;5015196;28;45505;-73
2022/09/04 01:05:23;;;;;;;;;8.00;7.00;;;;;19.48;72.81;100034.75;5016556;28;45371;-73
2022/09/04 01:07:59;;;;;;;;;6.00;6.00;;;;;19.41;72.89;100026.91;5016623;28;45617;-73
2022/09/04 01:10:47;;;;;;;;;8.00;7.00;;;;;19.36;72.81;100023.44;5015023;28;45360;-73
2022/09/04 01:13:40;;;;;;;;;6.00;6.00;;;;;19.43;73.59;100044.53;5014181;28;45575;-73
2022/09/04 01:16:19;;;;;;;;;9.67;9.00;;;;;19.28;74.34;100036.81;5013565;28;46344;-73
2022/09/04 01:19:02;;;;;;;;;7.00;6.33;;;;;19.18;74.69;100038.72;5013485;28;45340;-73
2022/09/04 01:22:06;;;;;;;;;8.67;8.33;;;;;19.15;74.70;100033.44;5001068;28;45570;-73
2022/09/04 01:24:34;;;;;;;;;7.00;7.00;;;;;19.20;74.41;100038.66;5016460;28;45555;-73
2022/09/04 01:27:20;;;;;;;;;7.00;7.00;;;;;19.19;74.49;100037.81;5015883;28;45444;-73
2022/09/04 01:30:04;;;;;;;;;7.00;7.00;;;;;19.21;74.53;100040.44;5033436;28;45529;-73
2022/09/04 01:33:07;;;;;;;;;11.00;8.67;;;;;19.21;74.31;100043.09;5017391;28;45517;-73
2022/09/04 01:35:38;;;;;;;;;7.67;6.67;;;;;19.21;74.01;100035.16;5033595;28;45519;-73
2022/09/04 01:38:34;;;;;;;;;7.00;6.00;;;;;19.20;74.39;100039.56;5017683;28;46048;-73
2022/09/04 01:41:17;;;;;;;;;6.67;6.33;;;;;19.20;74.29;100039.56;5018296;28;45486;-73
2022/09/04 01:43:43;;;;;;;;;6.33;6.33;;;;;19.06;74.37;100020.34;5036272;28;45518;-73
2022/09/04 01:46:47;;;;;;;;;6.00;6.00;;;;;19.10;74.32;100032.66;5024543;28;45312;-73
2022/09/04 01:49:37;;;;;;;;;6.67;6.00;;;;;19.13;74.75;100040.53;4935963;28;45396;-73
2022/09/04 01:52:21;;;;;;;;;8.67;8.67;;;;;19.10;74.61;100029.09;4919823;28;45506;-73
2022/09/04 01:54:55;;;;;;;;;8.33;6.67;;;;;19.07;74.17;100032.69;4997055;28;45473;-73
2022/09/04 01:57:33;;;;;;;;;7.00;7.00;;;;;18.99;75.30;100027.47;5017652;28;45553;-73
2022/09/04 02:00:09;;;;;;;;;8.33;7.00;;;;;18.77;74.96;100003.03;5017325;28;46111;-73
2022/09/04 02:02:53;;;;;;;;;7.00;7.00;;;;;18.94;75.21;100021.38;5016816;28;45392;-73
2022/09/04 02:05:38;;;;;;;;;8.00;6.67;;;;;18.90;75.11;100008.19;5032051;28;45282;-73
2022/09/04 02:08:17;;;;;;;;;6.33;6.00;;;;;18.82;74.88;99997.69;5016966;28;45415;-73
2022/09/04 02:10:58;;;;;;;;;6.00;5.67;;;;;18.93;75.05;100011.69;5016965;28;46315;-73
2022/09/04 02:13:35;;;;;;;;;8.33;7.00;;;;;18.91;75.03;100021.41;5016936;28;45273;-73
2022/09/04 02:16:19;;;;;;;;;6.67;6.33;;;;;18.83;75.03;100004.75;5016530;28;45325;-74
2022/09/04 02:19:23;;;;;;;;;8.33;7.00;;;;;18.84;74.92;100022.38;5015426;28;45344;-73
2022/09/04 02:22:06;;;;;;;;;8.33;8.00;;;;;18.81;74.99;100011.84;4977569;28;45612;-73
2022/09/04 02:24:58;;;;;;;;;7.67;7.00;;;;;18.85;74.62;100021.50;5016616;28;45429;-74
2022/09/04 02:27:43;;;;;;;;;6.00;6.00;;;;;18.73;74.89;99996.03;5016404;28;45450;-74
2022/09/04 02:30:12;;;;;;;;;6.67;6.67;;;;;18.81;74.92;100018.00;5002992;28;45498;-73
2022/09/04 02:32:38;;;;;;;;;7.33;7.00;;;;;18.76;74.93;100013.63;5011923;28;46431;-73
2022/09/04 02:35:10;;;;;;;;;7.00;6.67;;;;;18.71;75.33;100018.97;5026013;28;45461;-73
2022/09/04 02:37:54;;;;;;;;;8.33;6.67;;;;;18.71;75.07;100018.09;5015319;28;46585;-73
2022/09/04 02:40:47;;;;;;;;;9.00;6.00;;;;;18.59;74.94;100003.25;5028419;28;45439;-73
2022/09/04 02:43:38;;;;;;;;;8.33;7.00;;;;;18.66;75.39;100018.13;5012647;28;46631;-73
2022/09/04 02:46:41;;;;;;;;;8.33;8.33;;;;;18.60;75.83;100019.13;4987879;28;45423;-73
2022/09/04 02:49:12;;;;;;;;;8.33;8.00;;;;;18.44;76.39;100015.75;5016133;28;45172;-73
2022/09/04 02:51:47;;;;;;;;;9.67;8.33;;;;;18.33;76.55;100009.69;5012146;28;45519;-73
2022/09/04 02:54:47;;;;;;;;;7.33;6.67;;;;;18.29;76.87;100010.63;5026649;28;46263;-73
2022/09/04 02:57:38;;;;;;;;;7.00;6.33;;;;;18.24;77.83;100015.06;5016459;28;45426;-73
2022/09/04 03:00:18;;;;;;;;;8.33;8.33;;;;;18.21;76.91;99999.25;5001430;28;45522;-74
2022/09/04 03:03:02;;;;;;;;;8.00;8.00;;;;;18.28;76.98;100009.75;5016499;28;45498;-73
2022/09/04 03:05:33;;;;;;;;;7.00;7.00;;;;;18.29;77.01;100003.56;5015610;28;46234;-73
2022/09/04 03:08:11;;;;;;;;;8.00;7.00;;;;;18.33;76.87;100004.41;5014795;28;45559;-73
2022/09/04 03:11:00;;;;;;;;;8.00;8.00;;;;;18.36;76.33;99993.78;5016420;28;45551;-73
2022/09/04 03:13:30;;;;;;;;;7.33;7.00;;;;;18.27;76.37;99986.84;4987526;28;45638;-73
2022/09/04 03:16:04;;;;;;;;;7.67;7.33;;;;;18.31;76.95;100000.91;5014123;28;46480;-73
2022/09/04 03:19:10;;;;;;;;;9.67;8.33;;;;;18.24;77.56;99996.56;5015953;28;45491;-73
2022/09/04 03:21:55;;;;;;;;;7.67;7.67;;;;;18.22;77.34;99995.69;5001125;28;45580;-74
2022/09/04 03:24:48;;;;;;;;;9.33;9.33;;;;;18.22;77.85;99990.41;5015135;28;45502;-73
2022/09/04 03:27:17;;;;;;;;;11.00;9.67;;;;;18.13;77.42;99972.03;5030238;28;46333;-73
2022/09/04 03:30:06;;;;;;;;;8.67;8.33;;;;;18.17;78.00;99982.53;5015503;28;45501;-73
2022/09/04 03:33:05;;;;;;;;;9.00;8.67;;;;;18.13;77.81;99982.59;5014212;28;45239;-73
2022/09/04 03:35:46;;;;;;;;;8.67;8.67;;;;;18.11;78.00;99984.38;5003946;28;45395;-73
2022/09/04 03:38:35;;;;;;;;;8.00;6.33;;;;;18.12;78.00;99980.81;5015486;28;46299;-73
2022/09/04 03:41:05;;;;;;;;;10.33;10.33;;;;;18.13;78.05;99977.31;5018429;28;45494;-73
2022/09/04 03:44:15;;;;;;;;;11.67;9.67;;;;;18.12;78.43;99970.25;5019092;28;45822;-74
2022/09/04 03:46:40;;;;;;;;;10.67;10.33;;;;;18.11;78.82;99972.03;5016456;28;45685;-73
2022/09/04 03:49:22;;;;;;;;;11.33;11.00;;;;;18.07;78.77;99962.38;5019111;28;45725;-74
2022/09/04 03:52:05;;;;;;;;;10.33;9.67;;;;;18.18;78.66;99970.19;5030836;28;45501;-73
2022/09/04 03:54:43;;;;;;;;;13.67;11.67;;;;;18.07;79.49;99962.38;5018454;28;45673;-73
2022/09/04 03:57:23;;;;;;;;;10.67;10.67;;;;;18.05;79.21;99961.53;5017658;28;45635;-73
2022/09/04 04:00:02;;;;;;;;;9.00;9.00;;;;;18.05;79.07;99967.69;5018711;28;45625;-73
2022/09/04 04:02:36;;;;;;;;;8.33;8.33;;;;;18.12;78.68;99967.63;5003154;28;45657;-73
2022/09/04 04:05:02;;;;;;;;;13.00;12.00;;;;;18.15;79.09;99964.94;5019330;28;45357;-73
2022/09/04 04:07:34;;;;;;;;;11.00;11.00;;;;;18.05;79.59;99948.31;5019288;28;46617;-73
2022/09/04 04:10:21;;;;;;;;;10.67;10.00;;;;;18.16;79.05;99964.91;5018343;28;45561;-73
2022/09/04 04:13:11;;;;;;;;;10.67;10.67;;;;;18.16;79.01;99964.03;5018634;28;45574;-73
2022/09/04 04:16:07;;;;;;;;;11.67;10.67;;;;;18.12;79.72;99964.97;5018952;28;45474;-73
2022/09/04 04:19:05;;;;;;;;;12.67;12.00;;;;;18.12;79.35;99968.47;5019078;28;45511;-73
2022/09/04 04:22:03;;;;;;;;;11.00;11.00;;;;;18.09;79.05;99963.25;5000028;28;45294;-73
2022/09/04 04:24:48;;;;;;;;;10.33;10.33;;;;;17.83;78.82;99952.91;4993365;28;45404;-73
2022/09/04 04:27:37;;;;;;;;;8.67;8.33;;;;;17.87;78.82;99966.09;5003585;28;45526;-73
2022/09/04 04:30:07;;;;;;;;;9.67;9.67;;;;;17.90;79.53;99970.47;5018721;28;45490;-73
2022/09/04 04:33:03;;;;;;;;;10.33;10.33;;;;;17.86;79.93;99963.44;5017858;28;45375;-73
2022/09/04 04:35:59;;;;;;;;;11.00;10.33;;;;;17.79;79.87;99945.88;5018178;28;45578;-73
2022/09/04 04:38:40;;;;;;;;;11.33;10.67;;;;;17.93;79.80;99967.81;5018123;28;45699;-73
2022/09/04 04:41:24;;;;;;;;;10.67;10.67;;;;;17.96;79.16;99975.69;5018665;28;45669;-73
2022/09/04 04:44:11;;;;;;;;;10.67;10.67;;;;;17.98;79.13;99970.38;5018159;28;45375;-73
2022/09/04 04:46:46;;;;;;;;;10.00;9.67;;;;;18.01;79.35;99970.38;5016951;28;45440;-73
2022/09/04 04:49:32;;;;;;;;;10.67;10.67;;;;;18.00;79.37;99977.41;5018580;28;45437;-73
2022/09/04 04:52:30;;;;;;;;;11.00;10.67;;;;;18.02;78.73;99975.63;5017887;28;45474;-73
2022/09/04 04:55:12;;;;;;;;;12.00;10.67;;;;;18.03;79.15;99974.75;5012168;28;46481;-73
2022/09/04 04:57:37;;;;;;;;;11.00;10.67;;;;;18.03;78.86;99987.97;5018234;28;45347;-73
2022/09/04 05:00:19;;;;;;;;;10.33;10.33;;;;;17.99;78.86;99980.94;5018547;28;45476;-74
2022/09/04 05:03:15;;;;;;;;;11.00;10.00;;;;;17.87;79.06;99959.94;5009684;28;45375;-73
2022/09/04 05:06:09;;;;;;;;;11.00;10.33;;;;;18.06;79.09;99993.22;5016373;28;46864;-73
2022/09/04 05:08:53;;;;;;;;;11.00;10.33;;;;;18.06;78.84;99995.88;5018068;28;45522;-73
2022/09/04 05:11:42;;;;;;;;;12.00;11.67;;;;;18.07;78.94;100002.91;5017893;28;45190;-73
2022/09/04 05:14:32;;;;;;;;;15.00;15.00;;;;;18.09;78.42;100011.69;5018562;28;45582;-73
2022/09/04 05:17:10;;;;;;;;;11.67;10.67;;;;;18.09;78.60;100011.69;5017437;28;46051;-73
2022/09/04 05:20:17;;;;;;;;;8.33;8.00;;;;;18.05;78.63;100004.69;4998339;28;45447;-73
2022/09/04 05:23:00;;;;;;;;;9.67;9.67;;;;;17.99;78.72;99994.16;5013049;28;45474;-73
2022/09/04 05:25:56;;;;;;;;;13.00;13.00;;;;;17.91;78.35;99982.78;5002423;28;45274;-73
2022/09/04 05:28:28;;;;;;;;;10.67;10.67;;;;;17.81;78.38;99970.53;5017434;28;45381;-73
2022/09/04 05:31:06;;;;;;;;;15.00;14.00;;;;;18.01;78.45;100002.09;5017623;28;45476;-73
2022/09/04 05:34:05;;;;;;;;;16.67;16.67;;;;;18.00;78.27;100005.59;5017950;28;45572;-73
2022/09/04 05:37:14;;;;;;;;;12.67;11.67;;;;;18.03;77.99;100010.88;5016412;28;45471;-73
2022/09/04 05:39:46;;;;;;;;;11.67;11.67;;;;;18.05;78.39;100011.75;4989113;28;45827;-73
2022/09/04 05:42:22;;;;;;;;;10.33;10.00;;;;;18.08;78.03;100011.69;5017112;28;45380;-73
2022/09/04 05:44:50;;;;;;;;;11.00;10.00;;;;;18.09;77.71;100019.63;5016078;28;45436;-73
2022/09/04 05:47:47;;;;;;;;;10.00;10.00;;;;;18.04;77.89;100010.84;5015816;28;47092;-73
2022/09/04 05:50:30;;;;;;;;;9.67;8.67;;;;;18.12;77.95;100024.00;5017438;28;46119;-73
2022/09/04 05:53:52;;;;;;;;;9.67;9.67;;;;;18.12;77.31;100034.56;5031617;28;45222;-73
2022/09/04 05:57:07;;;;;;;;;10.33;10.33;;;;;18.16;77.55;100032.78;4975274;28;45859;-73
2022/09/04 06:00:01;;;;;;;;;10.67;10.67;;;;;18.19;77.63;100030.13;4977152;28;45777;-73
2022/09/04 06:02:32;;;;;;;;;13.00;12.33;;;;;18.24;77.19;100033.56;5015868;28;45376;-73
2022/09/04 06:05:09;;;;;;;;;11.67;11.00;;;;;18.25;76.89;100030.06;5031368;28;45427;-74
2022/09/04 06:07:49;;;;;;;;;10.33;10.33;;;;;18.32;76.99;100039.66;5016435;28;46594;-73
2022/09/04 06:10:46;;;;;;;;;13.33;12.33;;;;;18.33;77.09;100038.78;5016763;28;45522;-73
2022/09/04 06:13:46;;;;;;;;;16.67;13.67;;;;;18.36;76.83;100035.22;5016554;28;46297;-73
2022/09/04 06:16:21;;;;;;;;;14.33;13.00;;;;;18.48;76.65;100043.94;4998383;28;45211;-73
2022/09/04 06:19:36;;;;;;;;;14.00;11.67;;;;;18.59;76.33;100042.94;5016864;28;45304;-73
2022/09/04 06:22:26;;;;;;;;;12.33;11.33;;;;;18.71;75.83;100045.44;5003901;28;45565;-72
2022/09/04 06:25:18;;;;;;;;;12.00;10.67;;;;;18.82;75.47;100048.88;5014505;28;45535;-73
2022/09/04 06:27:51;;;;;;;;;12.67;10.67;;;;;18.91;75.27;100047.00;5013579;28;45890;-73
2022/09/04 06:30:17;;;;;;;;;13.33;12.67;;;;;18.85;74.60;100022.34;5012501;28;45465;-73
2022/09/04 06:32:55;;;;;;;;;14.33;13.67;;;;;19.05;74.90;100055.66;5015301;28;45320;-73
2022/09/04 06:35:51;;;;;;;;;14.33;13.33;;;;;19.15;74.75;100054.63;5015017;28;45512;-73
2022/09/04 06:38:44;;;;;;;;;10.67;10.67;;;;;19.23;74.14;100058.06;5010617;28;45557;-73
2022/09/04 06:41:31;;;;;;;;;13.33;12.33;;;;;19.40;74.28;100060.47;5014979;28;46072;-73
2022/09/04 06:44:15;;;;;;;;;9.33;9.33;;;;;19.55;73.59;100062.03;5027562;28;45459;-73
2022/09/04 06:47:02;;;;;;;;;10.67;10.67;;;;;21.79;71.42;100062.25;5029127;28;45599;-73
2022/09/04 06:49:46;;;;;;;;;10.00;9.00;;;;;25.94;59.35;100055.19;5016075;28;45392;-73
2022/09/04 06:52:36;;;;;;;;;10.00;9.00;;;;;28.59;51.21;100051.84;5016370;28;45432;-73
2022/09/04 06:55:33;;;;;;;;;7.33;7.00;;;;;30.81;47.28;100061.63;5003018;28;45376;-73
2022/09/04 06:58:16;;;;;;;;;7.67;7.67;;;;;32.28;42.14;100037.72;5016228;28;46333;-73
2022/09/04 07:00:52;;;;;;;;;8.33;7.33;;;;;33.64;39.18;100064.19;5013106;28;45869;-74
2022/09/04 07:03:43;;;;;;;;;6.67;6.67;;;;;34.93;36.47;100071.63;5012336;28;45500;-73
2022/09/04 07:06:44;;;;;;;;;6.00;6.00;;;;;36.04;35.32;100077.91;5046933;28;45568;-73
2022/09/04 07:09:26;;;;;;;;;5.00;5.00;;;;;37.25;34.37;100079.34;5029625;28;45587;-72
2022/09/04 07:12:40;;;;;;;;;7.67;7.33;;;;;38.07;30.49;100059.19;5014307;28;45415;-74
2022/09/04 07:15:23;;;;;;;;;7.00;6.00;;;;;39.01;29.39;100076.75;4986844;28;45444;-72
2022/09/04 07:18:37;;;;;;;;;6.67;6.67;;;;;39.79;28.45;100085.41;5018522;28;45711;-73
2022/09/04 07:21:29;;;;;;;;;6.67;6.33;;;;;40.59;27.33;100070.94;4978617;28;45749;-73
2022/09/04 07:24:16;;;;;;;;;6.00;5.67;;;;;41.24;26.42;100073.28;5017157;28;45360;-73
2022/09/04 07:27:11;;;;;;;;;4.33;4.33;;;;;42.05;26.11;100077.31;5015862;28;45606;-74
2022/09/04 07:30:02;;;;;;;;;5.00;5.00;;;;;42.73;24.19;100067.88;5017282;28;45506;-73
2022/09/04 07:32:46;;;;;;;;;6.67;6.00;;;;;43.53;23.29;100086.19;5017703;28;46421;-73
2022/09/04 07:35:43;;;;;;;;;5.00;5.00;;;;;44.12;22.63;100093.09;5015752;28;45869;-73
2022/09/04 07:38:34;;;;;;;;;5.33;5.33;;;;;44.79;22.45;100093.19;5016261;28;45507;-73
2022/09/04 07:41:08;;;;;;;;;5.33;3.67;;;;;45.30;21.24;100094.41;5013506;28;45460;-74
2022/09/04 07:43:39;;;;;;;;;6.67;5.00;;;;;45.75;20.99;100098.81;5016342;28;45563;-74
2022/09/04 07:46:33;;;;;;;;;5.67;5.33;;;;;46.14;20.55;100102.19;5013830;28;45638;-73
2022/09/04 07:49:27;;;;;;;;;4.67;4.33;;;;;46.63;20.46;100084.81;5041189;28;45597;-74
2022/09/04 07:52:10;;;;;;;;;5.00;4.00;;;;;47.11;19.66;100097.91;5011710;28;45597;-75
2022/09/04 07:54:48;;;;;;;;;5.67;5.67;;;;;47.42;18.44;100105.75;5016886;28;45383;-73
2022/09/04 07:57:28;;;;;;;;;5.67;5.67;;;;;47.62;18.79;100086.47;5017611;28;45484;-73
2022/09/04 07:59:59;;;;;;;;;5.00;5.00;;;;;48.07;18.97;100106.19;4997681;28;45427;-74
2022/09/04 08:02:42;;;;;;;;;4.00;4.00;;;;;48.36;18.75;100115.22;5005384;28;45776;-73
2022/09/04 08:05:22;;;;;;;;;5.00;4.00;;;;;48.71;18.56;100092.81;4994009;28;46281;-73
2022/09/04 08:08:03;;;;;;;;;3.67;3.67;;;;;49.09;17.75;100106.88;5032781;28;45451;-73
2022/09/04 08:10:32;;;;;;;;;4.00;3.67;;;;;49.29;17.74;100100.41;5017317;28;45332;-74
2022/09/04 08:13:12;;;;;;;;;5.33;5.00;;;;;49.46;17.17;100095.22;5017745;28;45455;-74
2022/09/04 08:15:51;;;;;;;;;4.33;4.33;;;;;49.68;17.75;100110.47;5039747;28;45515;-73
2022/09/04 08:18:28;;;;;;;;;4.00;4.00;;;;;49.97;17.12;100108.22;5039562;28;45539;-73
2022/09/04 08:21:36;;;;;;;;;5.00;4.67;;;;;50.24;16.22;100113.59;5014891;28;45834;-73
2022/09/04 08:24:23;;;;;;;;;3.33;3.33;;;;;50.55;17.05;100107.16;5018266;28;45622;-74
2022/09/04 08:27:08;;;;;;;;;6.00;5.00;;;;;50.69;15.93;100105.94;5012136;28;45487;-73
2022/09/04 08:29:48;;;;;;;;;3.00;3.00;;;;;50.61;16.01;100114.59;5014764;28;45395;-73
2022/09/04 08:32:33;;;;;;;;;7.00;4.00;;;;;50.44;15.59;100088.44;5015579;28;46008;-73
2022/09/04 08:35:02;;;;;;;;;5.00;4.33;;;;;50.38;16.59;100108.78;5015828;28;45588;-73
2022/09/04 08:37:48;;;;;;;;;4.00;4.00;;;;;49.53;16.94;100096.91;5017077;28;46526;-73
2022/09/04 08:40:35;;;;;;;;;5.00;4.00;;;;;49.71;17.04;100098.94;5016779;28;45478;-73
2022/09/04 08:43:38;;;;;;;;;7.00;7.00;;;;;49.69;16.53;100101.09;5016806;28;46120;-73
2022/09/04 08:46:34;;;;;;;;;5.00;5.00;;;;;49.09;17.57;100084.69;5032605;28;45449;-74
2022/09/04 08:49:41;;;;;;;;;8.67;8.67;;;;;48.74;17.85;100100.72;5015691;28;45883;-72
2022/09/04 08:52:10;;;;;;;;;6.33;6.33;;;;;48.47;17.42;100102.63;5012926;28;45593;-73
2022/09/04 08:55:01;;;;;;;;;5.00;5.00;;;;;47.98;18.12;100091.69;5016123;28;45560;-72
2022/09/04 08:57:50;;;;;;;;;4.00;4.00;;;;;47.98;18.47;100090.84;5015074;28;45415;-73
2022/09/04 09:00:17;;;;;;;;;5.00;4.33;;;;;47.62;18.29;100096.72;5044266;28;48233;-72
2022/09/04 09:02:56;;;;;;;;;7.00;6.33;;;;;47.35;19.50;100091.03;5015830;28;45447;-72
2022/09/04 09:05:52;;;;;;;;;4.67;4.00;;;;;47.04;19.66;100064.69;5017810;28;45360;-74
2022/09/04 09:08:29;;;;;;;;;7.67;7.67;;;;;47.30;19.73;100097.19;5031970;28;45480;-73
2022/09/04 09:11:23;;;;;;;;;4.00;4.00;;;;;47.29;19.78;100084.41;5028917;28;48252;-73
2022/09/04 09:14:20;;;;;;;;;6.67;6.00;;;;;47.67;19.68;100094.16;5012506;28;45656;-73
2022/09/04 09:17:15;;;;;;;;;5.67;5.00;;;;;47.83;19.68;100096.53;5004005;28;45490;-72
2022/09/04 09:20:10;;;;;;;;;5.00;4.33;;;;;47.96;19.20;100087.44;5016058;28;45518;-72
2022/09/04 09:23:05;;;;;;;;;4.33;4.33;;;;;48.24;18.00;100081.72;5009363;28;45813;-73
2022/09/04 09:26:05;;;;;;;;;4.33;4.33;;;;;48.51;18.42;100087.28;5014358;28;45381;-73
2022/09/04 09:29:18;;;;;;;;;4.00;4.00;;;;;48.68;18.58;100083.03;5012936;28;46081;-72
2022/09/04 09:32:02;;;;;;;;;4.00;4.00;;;;;49.29;16.84;100087.38;5013769;28;45446;-72
2022/09/04 09:35:07;;;;;;;;;4.00;4.00;;;;;49.67;17.67;100088.50;5013003;28;46211;-72
2022/09/04 09:37:38;;;;;;;;;5.00;4.33;;;;;49.95;18.04;100088.13;4983835;28;45836;-73
2022/09/04 09:40:22;;;;;;;;;6.67;6.00;;;;;49.94;16.21;100090.06;5015612;28;45459;-73
2022/09/04 09:43:09;;;;;;;;;5.33;5.00;;;;;50.06;15.88;100095.72;5015900;28;45507;-73
2022/09/04 09:46:04;;;;;;;;;4.67;4.67;;;;;49.78;16.24;100087.81;5015196;28;45916;-73
2022/09/04 09:49:07;;;;;;;;;5.33;5.33;;;;;49.89;16.65;100095.44;5015256;28;45633;-73
2022/09/04 09:52:09;;;;;;;;;5.00;5.00;;;;;50.01;17.24;100097.50;5000026;28;45512;-72
2022/09/04 09:55:06;;;;;;;;;6.00;5.67;;;;;50.05;16.49;100116.25;5015252;28;45536;-75
2022/09/04 09:57:45;;;;;;;;;5.00;5.00;;;;;50.09;17.15;100102.81;5015252;28;46541;-74
2022/09/04 10:00:12;;;;;;;;;5.00;5.00;;;;;50.45;16.88;100107.69;5015495;28;45682;-74
2022/09/04 10:02:49;;;;;;;;;4.33;4.33;;;;;50.48;16.44;100112.78;5030267;28;45528;-76
2022/09/04 10:05:31;;;;;;;;;6.33;5.00;;;;;50.26;16.79;100105.88;5001402;28;45716;-75
2022/09/04 10:08:29;;;;;;;;;4.33;4.33;;;;;49.30;18.08;100086.28;5014038;28;45475;-74
2022/09/04 10:11:16;;;;;;;;;5.33;5.00;;;;;49.75;17.79;100104.94;5030870;28;45407;-73
2022/09/04 10:13:54;;;;;;;;;5.33;4.00;;;;;49.69;18.21;100098.31;5015579;28;45419;-75
2022/09/04 10:16:35;;;;;;;;;4.00;4.00;;;;;49.69;18.36;100106.63;5015285;28;45833;-75
2022/09/04 10:19:06;;;;;;;;;6.00;4.33;;;;;49.60;18.25;100096.00;5015414;28;45941;-74
2022/09/04 10:21:55;;;;;;;;;5.67;5.33;;;;;49.03;18.13;100080.00;5013117;28;45586;-72
2022/09/04 10:24:44;;;;;;;;;5.00;4.33;;;;;48.80;18.88;100085.16;5037625;28;45590;-73
2022/09/04 10:27:37;;;;;;;;;5.50;5.50;;;;;48.83;19.00;100087.47;4999850;28;45664;-77
2022/09/04 10:30:09;;;;;;;;;4.67;3.67;;;;;48.42;18.60;100060.88;5014955;28;45471;-73
2022/09/04 10:32:47;;;;;;;;;4.33;4.33;;;;;47.69;19.39;100081.81;5015079;28;45423;-72
2022/09/04 10:35:40;;;;;;;;;6.67;5.67;;;;;46.95;20.73;100074.19;5030821;28;45481;-76
2022/09/04 10:38:30;;;;;;;;;8.67;7.33;;;;;46.09;21.80;100075.19;5014191;28;45520;-73
2022/09/04 10:41:23;;;;;;;;;6.00;6.00;;;;;45.62;22.93;100082.06;5015225;28;46749;-72
2022/09/04 10:44:01;;;;;;;;;8.67;7.00;;;;;44.78;23.55;100085.97;5014583;28;45540;-73
2022/09/04 10:47:09;;;;;;;;;9.67;8.67;;;;;43.33;25.38;100077.50;5016415;28;45501;-73
2022/09/04 10:49:52;;;;;;;;;9.00;9.00;;;;;42.62;26.24;100076.47;5015104;28;45444;-73
2022/09/04 10:52:51;;;;;;;;;7.67;7.67;;;;;41.24;28.19;100073.28;5017463;28;45471;-74
2022/09/04 10:55:36;;;;;;;;;6.67;6.67;;;;;40.79;29.29;100080.72;5014950;28;45397;-73
2022/09/04 10:58:20;;;;;;;;;7.67;7.00;;;;;39.77;30.49;100006.28;5031412;28;45551;-74
2022/09/04 11:01:07;;;;;;;;;7.67;6.67;;;;;40.16;30.33;100062.56;5014125;28;45440;-69
2022/09/04 11:03:49;;;;;;;;;8.00;7.67;;;;;40.15;30.35;100056.22;5016000;28;46102;-69
2022/09/04 11:06:48;;;;;;;;;7.00;7.00;;;;;39.75;30.42;100057.53;5016462;28;45590;-69
2022/09/04 11:09:41;;;;;;;;;7.67;7.67;;;;;39.49;30.94;100057.41;5015469;28;45513;-69
2022/09/04 11:12:34;;;;;;;;;7.00;7.00;;;;;39.44;30.67;100053.44;5013961;28;45446;-69
2022/09/04 11:15:12;;;;;;;;;9.33;9.33;;;;;39.14;31.55;100055.41;5015470;28;45759;-70
2022/09/04 11:18:03;;;;;;;;;9.00;8.00;;;;;38.19;33.03;100047.13;5012153;28;45598;-69
2022/09/04 11:20:56;;;;;;;;;17.00;16.00;;;;;38.05;33.05;100050.25;5007405;28;45458;-69
2022/09/04 11:23:41;;;;;;;;;17.00;16.00;;;;;37.66;34.02;100057.53;5015356;28;45448;-69
2022/09/04 11:26:19;;;;;;;;;11.50;11.00;;;;;37.52;33.70;100053.31;5030103;28;45649;-69
2022/09/04 11:29:02;;;;;;;;;8.00;8.00;;;;;37.28;33.94;100029.16;5015416;28;45404;-69
2022/09/04 11:31:53;;;;;;;;;9.67;8.67;;;;;37.15;34.72;100035.72;5000579;28;45628;-69
2022/09/04 11:34:34;;;;;;;;;9.33;9.33;;;;;36.95;34.53;100032.03;5014653;28;45355;-69
2022/09/04 11:37:27;;;;;;;;;9.67;9.33;;;;;36.58;35.90;100040.69;5013839;28;46690;-69
2022/09/04 11:40:19;;;;;;;;;9.33;9.33;;;;;36.40;35.92;100024.13;5015588;28;45502;-69
2022/09/04 11:43:08;;;;;;;;;9.00;8.33;;;;;36.24;36.48;99996.53;5014621;28;45471;-68
2022/09/04 11:46:11;;;;;;;;;9.33;9.33;;;;;36.52;36.09;100022.19;5015527;28;45462;-69
2022/09/04 11:48:43;;;;;;;;;9.00;8.33;;;;;36.29;36.97;100018.75;5028502;28;46693;-68
2022/09/04 11:51:22;;;;;;;;;8.00;8.00;;;;;36.06;37.38;100011.69;5014725;28;45469;-70
2022/09/04 11:54:04;;;;;;;;;10.67;10.00;;;;;35.96;37.55;100000.72;5011275;28;45398;-69
2022/09/04 11:56:48;;;;;;;;;10.67;9.67;;;;;36.08;36.88;100013.28;5015362;28;45584;-68
2022/09/04 11:59:41;;;;;;;;;14.00;14.00;;;;;35.87;37.58;100010.50;5015055;28;46226;-68
2022/09/04 12:02:49;;;;;;;;;8.67;8.67;;;;;35.54;38.00;100006.91;5017194;28;45538;-68
2022/09/04 12:05:38;;;;;;;;;8.67;8.67;;;;;35.37;39.02;100002.88;4985375;28;46201;-68
2022/09/04 12:08:40;;;;;;;;;9.67;9.67;;;;;35.32;38.96;100007.81;5017670;28;45502;-68
2022/09/04 12:11:44;;;;;;;;;7.67;7.33;;;;;35.35;38.81;100002.13;5017940;28;46134;-68
2022/09/04 12:14:34;;;;;;;;;11.33;11.33;;;;;35.11;39.55;99993.25;5017987;28;45494;-68
2022/09/04 12:17:28;;;;;;;;;7.33;7.00;;;;;35.10;39.43;100005.97;5004115;28;45498;-68
2022/09/04 12:19:53;;;;;;;;;13.67;12.00;;;;;35.05;39.71;100000.06;5018530;28;45253;-70
2022/09/04 12:22:49;;;;;;;;;9.67;9.67;;;;;35.19;39.19;100004.38;5018008;28;46235;-68
2022/09/04 12:25:38;;;;;;;;;9.00;8.67;;;;;35.29;38.89;99999.91;5017860;28;45500;-68
2022/09/04 12:28:28;;;;;;;;;8.00;7.67;;;;;35.20;39.37;100000.69;5013212;28;45644;-67
2022/09/04 12:31:16;;;;;;;;;8.00;7.67;;;;;34.84;39.99;99989.97;5008672;28;45467;-68
2022/09/04 12:33:53;;;;;;;;;25.33;24.67;;;;;34.83;40.01;99990.06;5017327;28;46184;-68
2022/09/04 12:36:51;;;;;;;;;7.00;7.00;;;;;34.73;39.39;99994.50;5017642;28;45443;-68
2022/09/04 12:39:47;;;;;;;;;9.33;8.67;;;;;34.04;40.01;99995.28;4994438;28;45517;-68
2022/09/04 12:42:59;;;;;;;;;10.67;10.00;;;;;33.85;40.67;99966.91;5018110;28;45462;-68
2022/09/04 12:45:49;;;;;;;;;8.67;8.67;;;;;34.14;40.17;99988.25;4994157;28;45697;-71
2022/09/04 12:48:20;;;;;;;;;12.33;12.00;;;;;34.32;39.91;99985.06;5018029;28;45519;-69